ACF weather

Brisbane Archerfield Airport
Brisbane, Queensland, Australia

Public forecast

Using degrees Celsius for public forecast. Weather courtesy of forecast.io.

METAR (pilot weather report)

Closest report is Brisbane International Airport, 12.6 nm (23.3 km) NNE. Retrieved 2017/10/19 06:30 UTC (0 seconds ago):

YBBN 190630Z 07009KT 9999 FEW030 BKN061 22/15 Q1023 NOSIG

TAF (pilot weather forecast)

Closest forecast is Brisbane International Airport, 12.6 nm (23.3 km) NNE. Retrieved 2017/10/19 06:46 UTC (0 seconds ago):

TAF YBBN 190508Z 1906/2012 07012KT 9999 SCT030 BKN060 FM191000 09007KT 9999 -SHRA SCT025 BKN050 FM200000 03012KT 9999 SCT035